createdAt,value
2019-03-03T00:00:20.615Z,51.40
2019-03-03T00:02:46.444Z,51.27
2019-03-03T00:05:12.377Z,51.30
2019-03-03T00:07:38.349Z,51.12
2019-03-03T00:10:09.391Z,51.39
2019-03-03T00:12:35.357Z,51.93
2019-03-03T00:15:02.389Z,52.42
2019-03-03T00:17:28.232Z,52.61
2019-03-03T00:19:54.078Z,52.93
2019-03-03T00:22:20.018Z,52.88
2019-03-03T00:24:45.878Z,52.69
2019-03-03T00:27:11.757Z,53.03
2019-03-03T00:29:37.625Z,53.49
2019-03-03T00:32:03.564Z,53.30
2019-03-03T00:34:29.440Z,53.30
2019-03-03T00:36:59.993Z,53.06
2019-03-03T00:39:34.051Z,52.48
2019-03-03T00:42:18.436Z,52.55
2019-03-03T00:44:52.027Z,52.29
2019-03-03T00:47:22.840Z,52.46
2019-03-03T00:49:50.821Z,52.15
2019-03-03T00:52:21.669Z,52.34
2019-03-03T00:55:06.367Z,52.66
2019-03-03T00:57:34.886Z,52.81
2019-03-03T01:00:02.732Z,52.60
2019-03-03T01:02:36.505Z,52.80
2019-03-03T01:05:08.702Z,52.54
2019-03-03T01:07:54.781Z,52.59
2019-03-03T01:10:22.742Z,52.39
2019-03-03T01:12:56.543Z,52.97
2019-03-03T01:15:39.444Z,53.12
2019-03-03T01:18:10.325Z,52.84
2019-03-03T01:20:41.271Z,53.12
2019-03-03T01:23:20.986Z,53.42
2019-03-03T01:25:47.093Z,53.13
2019-03-03T01:28:13.188Z,52.91
2019-03-03T01:30:39.044Z,52.33
2019-03-03T01:33:05.132Z,51.58
2019-03-03T01:35:31.061Z,51.70
2019-03-03T01:37:57.034Z,51.55
2019-03-03T01:40:23.150Z,51.61
2019-03-03T01:42:48.993Z,52.34
2019-03-03T01:45:15.046Z,53.12
2019-03-03T01:47:41.079Z,53.25
2019-03-03T01:50:09.417Z,53.57
2019-03-03T01:52:35.332Z,53.71
2019-03-03T01:55:01.217Z,53.45
2019-03-03T01:57:27.255Z,53.46
2019-03-03T01:59:53.165Z,53.61
2019-03-03T02:02:19.324Z,53.37
2019-03-03T02:04:45.245Z,53.79
2019-03-03T02:07:11.263Z,53.32
2019-03-03T02:09:37.324Z,53.29
2019-03-03T02:12:03.367Z,53.06
2019-03-03T02:14:29.624Z,53.11
2019-03-03T02:16:55.569Z,53.22
2019-03-03T02:19:21.410Z,53.21
2019-03-03T02:21:47.321Z,53.10
2019-03-03T02:24:13.817Z,53.56
2019-03-03T02:26:39.661Z,53.78
2019-03-03T02:29:05.729Z,54.28
2019-03-03T02:31:31.685Z,54.48
2019-03-03T02:33:57.523Z,54.58
2019-03-03T02:36:23.613Z,54.75
2019-03-03T02:38:49.449Z,54.34
2019-03-03T02:41:15.621Z,54.15
2019-03-03T02:43:41.590Z,54.26
2019-03-03T02:46:07.556Z,54.04
2019-03-03T02:48:33.563Z,54.36
2019-03-03T02:50:59.531Z,53.71
2019-03-03T02:53:25.481Z,53.66
2019-03-03T02:55:51.383Z,53.70
2019-03-03T02:58:17.234Z,53.95
2019-03-03T03:00:47.180Z,54.36
2019-03-03T03:03:14.562Z,54.55
2019-03-03T03:05:48.030Z,54.77
2019-03-03T03:08:15.925Z,54.90
2019-03-03T03:10:48.496Z,54.53
2019-03-03T03:13:16.237Z,54.26
2019-03-03T03:15:44.231Z,54.34
2019-03-03T03:18:30.252Z,54.66
2019-03-03T03:21:00.927Z,54.88
2019-03-03T03:23:31.406Z,54.99
2019-03-03T03:26:02.225Z,55.08
2019-03-03T03:28:32.954Z,54.79
2019-03-03T03:31:03.685Z,54.88
2019-03-03T03:33:34.178Z,55.30
2019-03-03T03:36:12.735Z,54.96
2019-03-03T03:38:49.523Z,55.05
2019-03-03T03:41:26.142Z,55.14
2019-03-03T03:43:59.769Z,55.19
2019-03-03T03:46:27.739Z,55.53
2019-03-03T03:48:55.607Z,55.57
2019-03-03T03:51:29.663Z,55.46
2019-03-03T03:54:14.549Z,55.42
2019-03-03T03:56:48.080Z,55.29
2019-03-03T03:59:15.829Z,54.91
2019-03-03T04:01:49.638Z,54.91
2019-03-03T04:04:17.494Z,55.06
2019-03-03T04:06:45.472Z,55.18
2019-03-03T04:09:23.001Z,55.24
2019-03-03T04:12:05.857Z,55.13
2019-03-03T04:14:40.803Z,55.10
2019-03-03T04:17:11.251Z,55.29
2019-03-03T04:19:41.764Z,55.47
2019-03-03T04:22:27.773Z,55.37
2019-03-03T04:25:07.501Z,55.35
2019-03-03T04:27:38.493Z,55.24
2019-03-03T04:30:09.602Z,54.84
2019-03-03T04:32:54.245Z,55.58
2019-03-03T04:35:40.118Z,55.97
2019-03-03T04:38:07.883Z,55.87
2019-03-03T04:40:47.970Z,55.66
2019-03-03T04:43:31.094Z,55.65
2019-03-03T04:45:58.865Z,55.71
2019-03-03T04:48:29.912Z,55.69
2019-03-03T04:51:14.198Z,55.98
2019-03-03T04:53:42.136Z,56.39
2019-03-03T04:56:21.907Z,56.03
2019-03-03T04:59:06.660Z,55.90
2019-03-03T05:01:46.409Z,55.88
2019-03-03T05:04:30.732Z,55.93
2019-03-03T05:07:04.313Z,55.78
2019-03-03T05:09:32.076Z,56.31
2019-03-03T05:12:20.137Z,56.63
2019-03-03T05:14:46.199Z,56.75
2019-03-03T05:17:19.756Z,56.81
2019-03-03T05:19:47.555Z,56.34
2019-03-03T05:22:13.500Z,56.10
2019-03-03T05:24:39.345Z,55.86
2019-03-03T05:27:05.236Z,55.54
2019-03-03T05:29:31.188Z,55.73
2019-03-03T05:31:57.126Z,55.43
2019-03-03T05:34:23.094Z,55.83
2019-03-03T05:36:49.082Z,55.84
2019-03-03T05:39:15.096Z,56.59
2019-03-03T05:41:40.944Z,56.18
2019-03-03T05:44:06.801Z,56.36
2019-03-03T05:46:32.703Z,56.17
2019-03-03T05:48:58.677Z,56.48
2019-03-03T05:51:24.633Z,56.83
2019-03-03T05:53:50.548Z,57.01
2019-03-03T05:56:16.423Z,56.74
2019-03-03T05:58:42.224Z,57.08
2019-03-03T06:01:08.068Z,57.39
2019-03-03T06:03:34.045Z,57.19
2019-03-03T06:05:59.924Z,56.73
2019-03-03T06:08:25.790Z,56.65
2019-03-03T06:10:51.739Z,55.41
2019-03-03T06:13:17.644Z,55.27
2019-03-03T06:15:43.496Z,55.33
2019-03-03T06:18:09.435Z,56.13
2019-03-03T06:20:35.439Z,56.25
2019-03-03T06:23:01.293Z,56.12
2019-03-03T06:25:27.170Z,56.13
2019-03-03T13:46:18.594Z,15.73
2019-03-03T13:48:44.543Z,14.81
2019-03-03T13:51:10.749Z,17.82
2019-03-03T13:53:36.792Z,20.09
2019-03-03T13:56:02.954Z,21.60
2019-03-03T13:58:29.038Z,20.70
2019-03-03T14:00:55.095Z,18.06
2019-03-03T14:03:21.125Z,20.12
2019-03-03T14:05:47.151Z,18.77
2019-03-03T14:08:13.190Z,15.90
2019-03-03T14:10:39.349Z,13.75
2019-03-03T14:13:05.299Z,13.77
2019-03-03T14:15:31.388Z,13.69
2019-03-03T14:17:58.049Z,14.30
2019-03-03T14:20:24.230Z,13.79
2019-03-03T14:22:52.227Z,13.68
2019-03-03T14:25:18.182Z,12.80
2019-03-03T14:27:44.233Z,14.14
2019-03-03T14:30:18.684Z,15.03
2019-03-03T14:32:44.994Z,11.97
2019-03-03T14:35:12.775Z,14.07
2019-03-03T14:37:38.816Z,15.97
2019-03-03T14:40:08.197Z,13.34
2019-03-03T14:42:34.237Z,10.86
2019-03-03T14:45:00.240Z,17.04
2019-03-03T14:47:26.198Z,18.52
2019-03-03T14:49:52.172Z,22.21
2019-03-03T14:52:18.183Z,22.19
2019-03-03T14:54:44.105Z,20.67
2019-03-03T14:57:10.022Z,18.49
2019-03-03T14:59:35.958Z,17.41
2019-03-03T15:02:02.044Z,15.77
2019-03-03T15:04:28.002Z,18.10
2019-03-03T15:06:53.984Z,17.34
2019-03-03T15:09:20.676Z,17.13
2019-03-03T15:11:46.628Z,18.01
2019-03-03T15:14:12.601Z,18.70
2019-03-03T15:16:38.578Z,17.73
2019-03-03T15:19:04.624Z,18.83
2019-03-03T15:21:30.599Z,19.69
2019-03-03T15:23:56.439Z,20.50
2019-03-03T15:26:22.409Z,21.15
2019-03-03T15:28:48.422Z,22.47
2019-03-03T15:31:14.489Z,22.20
2019-03-03T15:33:40.469Z,24.96
2019-03-03T15:36:06.550Z,25.27
2019-03-03T15:38:32.688Z,23.67
2019-03-03T15:40:58.730Z,26.41
2019-03-03T15:43:24.705Z,27.32
2019-03-03T15:45:50.574Z,27.27
2019-03-03T15:48:16.544Z,27.37
2019-03-03T15:50:42.609Z,28.25
2019-03-03T15:53:08.546Z,28.27
2019-03-03T15:55:34.506Z,28.48
2019-03-03T15:58:00.548Z,28.74
2019-03-03T16:00:29.000Z,28.97
2019-03-03T16:02:54.988Z,28.64
2019-03-03T16:05:21.063Z,29.69
2019-03-03T16:07:47.319Z,29.69
2019-03-03T16:10:17.482Z,29.92
2019-03-03T16:12:43.643Z,29.79
2019-03-03T16:15:11.722Z,30.35
2019-03-03T16:17:37.771Z,30.28
2019-03-03T16:20:09.666Z,30.31
2019-03-03T16:22:35.824Z,30.49
2019-03-03T16:25:02.203Z,30.34
2019-03-03T16:27:28.051Z,30.19
2019-03-03T16:29:54.004Z,30.70
2019-03-03T16:32:19.849Z,31.07
2019-03-03T16:34:45.690Z,31.34
2019-03-03T16:37:11.577Z,31.35
2019-03-03T16:39:37.497Z,31.47
2019-03-03T16:42:03.424Z,31.66
2019-03-03T16:44:29.393Z,31.85
2019-03-03T16:46:55.309Z,32.22
2019-03-03T16:49:21.175Z,32.31
2019-03-03T16:51:47.139Z,32.61
2019-03-03T16:54:13.126Z,32.68
2019-03-03T16:56:39.156Z,33.19
2019-03-03T16:59:05.018Z,33.42
2019-03-03T17:01:31.091Z,33.51
2019-03-03T17:03:57.026Z,33.80
2019-03-03T17:06:22.945Z,34.37
2019-03-03T17:08:48.952Z,34.79
2019-03-03T17:11:14.757Z,35.36
2019-03-03T17:13:40.711Z,35.60
2019-03-03T17:16:06.537Z,35.85
2019-03-03T17:18:32.497Z,36.03
2019-03-03T17:20:58.377Z,36.14
2019-03-03T17:23:24.315Z,36.98
2019-03-03T17:25:50.418Z,37.17
2019-03-03T17:28:16.355Z,37.40
2019-03-03T17:30:45.957Z,37.26
2019-03-03T17:33:11.785Z,37.74
2019-03-03T17:35:37.640Z,38.30
2019-03-03T17:38:03.635Z,38.53
2019-03-03T17:40:29.505Z,38.54
2019-03-03T17:42:55.464Z,38.08
2019-03-03T17:45:22.481Z,38.95
2019-03-03T17:47:49.032Z,38.95
2019-03-03T17:50:18.666Z,39.07
2019-03-03T17:52:44.957Z,39.25
2019-03-03T17:55:11.945Z,39.19
2019-03-03T17:57:37.964Z,39.41
2019-03-03T18:00:08.931Z,39.48
2019-03-03T18:02:34.873Z,39.58
2019-03-03T18:05:00.887Z,39.55
2019-03-03T18:07:26.765Z,40.01
2019-03-03T18:09:52.617Z,41.13
2019-03-03T18:12:18.465Z,40.55
2019-03-03T18:14:44.363Z,40.25
2019-03-03T18:17:10.206Z,40.43
2019-03-03T18:19:36.041Z,40.28
2019-03-03T18:22:01.900Z,40.58
2019-03-03T18:24:27.723Z,40.58
2019-03-03T18:26:53.569Z,40.90
2019-03-03T18:29:19.564Z,40.70
2019-03-03T18:31:45.537Z,40.39
2019-03-03T18:34:11.606Z,40.80
2019-03-03T18:36:38.173Z,40.53
2019-03-03T18:39:05.407Z,41.08
2019-03-03T18:41:31.480Z,40.87
2019-03-03T18:43:57.436Z,41.14
2019-03-03T18:46:23.387Z,41.14
2019-03-03T18:48:49.491Z,41.51
2019-03-03T18:51:15.572Z,42.24
2019-03-03T18:53:41.446Z,41.88
2019-03-03T18:56:07.566Z,42.19
2019-03-03T18:58:33.520Z,41.83
2019-03-03T19:00:59.457Z,42.28
2019-03-03T19:03:25.394Z,42.43
2019-03-03T19:05:55.753Z,42.64
2019-03-03T19:08:19.063Z,42.76
2019-03-03T19:10:44.907Z,42.68
2019-03-03T19:13:10.839Z,43.65
2019-03-03T19:15:36.840Z,43.67
2019-03-03T19:18:03.393Z,43.14
2019-03-03T19:20:30.463Z,43.17
2019-03-03T19:22:56.432Z,43.52
2019-03-03T19:25:22.477Z,43.63
2019-03-03T19:27:48.600Z,44.16
2019-03-03T19:30:21.370Z,43.95
2019-03-03T19:32:54.606Z,44.30
2019-03-03T19:35:20.677Z,43.97
2019-03-03T19:37:46.757Z,44.44
2019-03-03T19:40:12.820Z,43.74
2019-03-03T19:42:38.984Z,43.83
2019-03-03T19:45:20.259Z,43.66
2019-03-03T19:47:46.343Z,44.00
2019-03-03T19:50:13.289Z,44.39
2019-03-03T19:52:39.294Z,44.62
2019-03-03T19:55:08.261Z,45.08
2019-03-03T19:57:34.242Z,45.23
2019-03-03T20:00:00.236Z,45.73
2019-03-03T20:02:26.347Z,45.78
2019-03-03T20:04:52.536Z,46.13
2019-03-03T20:07:18.591Z,45.37
2019-03-03T20:09:45.240Z,45.50
2019-03-03T20:12:11.298Z,45.71
2019-03-03T20:14:37.263Z,46.24
2019-03-03T20:17:03.508Z,46.70
2019-03-03T20:19:29.428Z,47.55
2019-03-03T20:21:55.268Z,47.71
2019-03-03T20:24:21.338Z,47.86
2019-03-03T20:26:47.318Z,48.47
2019-03-03T20:29:13.280Z,48.94
2019-03-03T20:31:39.218Z,49.03
2019-03-03T20:34:05.094Z,48.71
2019-03-03T20:36:31.076Z,48.93
2019-03-03T20:38:57.040Z,49.65
2019-03-03T20:41:22.976Z,49.25
2019-03-03T20:43:48.839Z,48.62
2019-03-03T20:46:14.811Z,48.35
2019-03-03T20:48:40.886Z,48.99
2019-03-03T20:51:07.137Z,48.54
2019-03-03T20:53:33.489Z,48.71
2019-03-03T20:55:59.735Z,48.77
2019-03-03T20:58:26.418Z,48.61
2019-03-03T21:00:53.413Z,49.11
2019-03-03T21:03:21.751Z,49.59
2019-03-03T21:05:48.318Z,49.64
2019-03-03T21:08:15.034Z,49.71
2019-03-03T21:10:41.747Z,49.71
2019-03-03T21:13:08.397Z,49.69
2019-03-03T21:15:35.181Z,49.96
2019-03-03T21:18:01.880Z,49.51
2019-03-03T21:20:28.684Z,49.43
2019-03-03T21:22:55.341Z,49.31
2019-03-03T21:25:21.708Z,49.36
2019-03-03T21:27:47.932Z,49.67
2019-03-03T21:30:18.226Z,50.20
2019-03-03T21:32:44.155Z,49.75
2019-03-03T21:35:11.131Z,49.49
2019-03-03T21:37:37.053Z,49.60
2019-03-03T21:40:06.414Z,49.54
2019-03-03T21:42:32.368Z,49.65
2019-03-03T21:44:58.287Z,49.46
2019-03-03T21:47:24.118Z,49.40
2019-03-03T21:49:50.032Z,49.26
2019-03-03T21:52:15.879Z,49.26
2019-03-03T21:54:42.682Z,48.61
2019-03-03T21:57:09.772Z,48.57
2019-03-03T21:59:35.625Z,48.17
2019-03-03T22:02:01.467Z,48.22
2019-03-03T22:04:27.453Z,48.49
2019-03-03T22:06:53.300Z,48.69
2019-03-03T22:09:21.518Z,48.39
2019-03-03T22:11:47.489Z,48.34
2019-03-03T22:14:13.318Z,48.89
2019-03-03T22:16:39.203Z,48.66
2019-03-03T22:19:05.056Z,49.09
2019-03-03T22:21:31.006Z,49.02
2019-03-03T22:23:57.002Z,48.96
2019-03-03T22:26:22.951Z,48.81
2019-03-03T22:28:48.886Z,48.80
2019-03-03T22:31:14.941Z,49.14
2019-03-03T22:33:40.807Z,48.70
2019-03-03T22:36:10.813Z,48.59
2019-03-03T22:38:36.658Z,48.91
2019-03-03T22:41:02.711Z,48.86
2019-03-03T22:43:28.645Z,48.86
2019-03-03T22:45:54.691Z,49.02
2019-03-03T22:48:20.595Z,49.30
2019-03-03T22:50:46.466Z,49.06
2019-03-03T22:53:12.715Z,48.72
2019-03-03T22:55:40.404Z,48.88
2019-03-03T22:58:06.648Z,49.16
2019-03-03T23:00:50.026Z,49.40
2019-03-03T23:03:25.471Z,49.10
2019-03-03T23:05:58.189Z,48.35
2019-03-03T23:08:33.901Z,48.57
2019-03-03T23:11:30.759Z,47.95
2019-03-03T23:14:12.740Z,48.26
2019-03-03T23:16:42.481Z,48.82
2019-03-03T23:19:27.243Z,48.89
2019-03-03T23:22:14.912Z,49.15
2019-03-03T23:24:59.426Z,49.19
2019-03-03T23:27:25.395Z,49.83
2019-03-03T23:29:51.386Z,49.36
2019-03-03T23:32:17.555Z,48.87
2019-03-03T23:34:43.482Z,49.52
2019-03-03T23:37:09.389Z,49.80
2019-03-03T23:39:35.317Z,49.74
2019-03-03T23:42:01.418Z,49.71
2019-03-03T23:44:27.422Z,50.00
2019-03-03T23:46:53.241Z,49.65
2019-03-03T23:49:19.079Z,50.04
2019-03-03T23:51:45.143Z,50.27
2019-03-03T23:54:11.144Z,50.10
2019-03-03T23:56:36.997Z,50.29
2019-03-03T23:59:02.958Z,51.04
